createdAt,value
2023-01-15T00:02:16.868Z,6.70
2023-01-15T00:04:44.125Z,6.70
2023-01-15T00:07:11.171Z,6.70
2023-01-15T00:09:38.130Z,6.70
2023-01-15T00:12:08.324Z,6.70
2023-01-15T00:14:35.249Z,6.60
2023-01-15T00:17:02.167Z,6.60
2023-01-15T00:19:29.131Z,6.60
2023-01-15T00:21:56.525Z,6.60
2023-01-15T00:24:41.967Z,6.70
2023-01-15T00:27:29.647Z,6.60
2023-01-15T00:29:56.682Z,6.60
2023-01-15T00:32:23.642Z,6.50
2023-01-15T00:34:50.656Z,6.50
2023-01-15T00:37:17.561Z,6.60
2023-01-15T00:39:44.527Z,6.60
2023-01-15T00:42:14.690Z,6.60
2023-01-15T00:44:41.641Z,6.60
2023-01-15T00:47:14.452Z,6.60
2023-01-15T00:49:42.734Z,6.60
2023-01-15T00:52:11.161Z,6.70
2023-01-15T00:54:38.372Z,6.70
2023-01-15T00:57:05.444Z,6.70
2023-01-15T00:59:32.566Z,6.60
2023-01-15T01:01:59.742Z,6.60
2023-01-15T01:04:26.844Z,6.60
2023-01-15T01:06:54.323Z,6.50
2023-01-15T01:09:21.492Z,6.50
2023-01-15T01:11:50.288Z,6.50
2023-01-15T01:14:17.655Z,6.50
2023-01-15T01:16:44.687Z,6.50
2023-01-15T01:19:14.842Z,6.50
2023-01-15T01:21:43.725Z,6.50
2023-01-15T01:24:17.010Z,6.60
2023-01-15T01:26:45.466Z,6.60
2023-01-15T01:29:17.846Z,6.60
2023-01-15T01:31:45.539Z,6.60
2023-01-15T01:34:13.321Z,6.60
2023-01-15T01:36:42.765Z,6.60
2023-01-15T01:39:14.809Z,6.50
2023-01-15T01:41:41.965Z,6.40
2023-01-15T01:44:33.665Z,6.40
2023-01-15T01:47:08.130Z,6.50
2023-01-15T01:49:38.041Z,6.50
2023-01-15T01:52:17.123Z,6.50
2023-01-15T01:54:46.684Z,6.50
2023-01-15T01:57:14.801Z,6.40
2023-01-15T01:59:42.015Z,6.40
2023-01-15T02:02:09.429Z,6.40
2023-01-15T02:04:37.605Z,6.40
2023-01-15T02:07:05.084Z,6.50
2023-01-15T02:09:32.682Z,6.50
2023-01-15T02:12:11.162Z,6.50
2023-01-15T02:14:58.864Z,6.50
2023-01-15T02:17:49.167Z,6.50
2023-01-15T02:20:29.048Z,6.50
2023-01-15T02:23:04.961Z,6.50
2023-01-15T02:25:59.600Z,6.40
2023-01-15T02:28:32.371Z,6.40
2023-01-15T02:31:12.449Z,6.40
2023-01-15T02:33:45.645Z,6.40
2023-01-15T02:36:16.217Z,6.40
2023-01-15T02:38:47.880Z,6.40
2023-01-15T02:41:19.327Z,6.40
2023-01-15T02:43:52.131Z,6.40
2023-01-15T02:46:23.288Z,6.40
2023-01-15T02:48:53.808Z,6.50
2023-01-15T02:51:25.217Z,6.50
2023-01-15T02:53:58.682Z,6.50
2023-01-15T02:56:30.371Z,6.40
2023-01-15T02:59:03.641Z,6.40
2023-01-15T03:01:41.773Z,6.40
2023-01-15T03:04:23.848Z,6.40
2023-01-15T03:07:00.965Z,6.40
2023-01-15T03:09:30.938Z,6.40
2023-01-15T03:12:04.886Z,6.40
2023-01-15T03:14:38.565Z,6.30
2023-01-15T03:17:23.411Z,6.30
2023-01-15T03:19:58.135Z,6.30
2023-01-15T03:22:32.507Z,6.30
2023-01-15T03:25:26.125Z,6.40
2023-01-15T03:27:56.724Z,6.40
2023-01-15T03:30:24.046Z,6.40
2023-01-15T03:32:51.204Z,6.40
2023-01-15T03:35:39.646Z,6.40
2023-01-15T03:38:06.967Z,6.30
2023-01-15T03:40:36.850Z,6.30
2023-01-15T03:43:30.126Z,6.30
2023-01-15T03:46:03.214Z,6.30
2023-01-15T03:48:34.204Z,6.30
2023-01-15T03:51:01.162Z,6.30
2023-01-15T03:53:47.108Z,6.30
2023-01-15T03:56:30.926Z,6.40
2023-01-15T03:59:12.288Z,6.40
2023-01-15T04:01:42.898Z,6.30
2023-01-15T04:04:13.991Z,6.30
2023-01-15T04:06:43.615Z,6.30
2023-01-15T04:09:13.081Z,6.30
2023-01-15T04:11:40.588Z,6.40
2023-01-15T04:14:07.600Z,6.40
2023-01-15T04:16:37.440Z,6.40
2023-01-15T04:19:04.479Z,6.40
2023-01-15T04:21:31.489Z,6.40
2023-01-15T04:23:58.552Z,6.40
2023-01-15T04:26:26.049Z,6.40
2023-01-15T04:28:53.004Z,6.40
2023-01-15T04:31:20.237Z,6.40
2023-01-15T04:33:47.263Z,6.40
2023-01-15T04:36:17.410Z,6.30
2023-01-15T04:38:44.410Z,6.30
2023-01-15T04:41:29.852Z,6.30
2023-01-15T04:44:08.904Z,6.40
2023-01-15T04:46:39.320Z,6.40
2023-01-15T04:49:10.232Z,6.40
2023-01-15T04:51:37.731Z,6.30
2023-01-15T04:54:05.724Z,6.30
2023-01-15T04:56:37.299Z,6.30
2023-01-15T04:59:04.249Z,6.30
2023-01-15T05:01:31.363Z,6.30
2023-01-15T05:03:58.809Z,6.30
2023-01-15T05:06:26.600Z,6.30
2023-01-15T05:08:54.685Z,6.30
2023-01-15T05:11:21.748Z,6.30
2023-01-15T05:13:48.767Z,6.30
2023-01-15T05:16:25.285Z,6.30
2023-01-15T05:18:54.652Z,6.30
2023-01-15T05:21:35.644Z,6.30
2023-01-15T05:24:05.122Z,6.30
2023-01-15T05:26:33.604Z,6.40
2023-01-15T05:29:02.606Z,6.40
2023-01-15T05:31:30.959Z,6.40
2023-01-15T05:33:58.443Z,6.40
2023-01-15T05:36:28.150Z,6.40
2023-01-15T05:38:58.135Z,6.40
2023-01-15T05:41:44.087Z,6.40
2023-01-15T05:44:16.909Z,6.40
2023-01-15T05:46:45.045Z,6.40
2023-01-15T05:49:14.890Z,6.40
2023-01-15T05:51:42.654Z,6.50
2023-01-15T05:54:13.880Z,6.50
2023-01-15T05:56:41.249Z,6.40
2023-01-15T05:59:09.080Z,6.40
2023-01-15T06:01:36.639Z,6.40
2023-01-15T06:04:05.707Z,6.40
2023-01-15T06:06:33.847Z,6.40
2023-01-15T06:09:01.125Z,6.40
2023-01-15T06:11:28.243Z,6.40
2023-01-15T06:13:55.153Z,6.40
2023-01-15T06:16:22.298Z,6.40
2023-01-15T06:18:49.333Z,6.30
2023-01-15T06:21:17.001Z,6.30
2023-01-15T06:23:44.608Z,6.30
2023-01-15T06:26:17.643Z,6.30
2023-01-15T06:28:45.650Z,6.30
2023-01-15T06:31:15.362Z,6.30
2023-01-15T06:33:42.614Z,6.30
2023-01-15T06:36:23.686Z,6.30
2023-01-15T06:38:51.094Z,6.20
2023-01-15T06:41:41.704Z,6.30
2023-01-15T06:44:37.904Z,6.30
2023-01-15T06:47:21.863Z,6.30
2023-01-15T06:49:58.050Z,6.20
2023-01-15T06:52:26.849Z,6.20
2023-01-15T06:54:54.419Z,6.20
2023-01-15T06:57:22.052Z,6.30
2023-01-15T06:59:50.535Z,6.20
2023-01-15T07:02:18.631Z,6.20
2023-01-15T07:04:47.105Z,6.20
2023-01-15T07:07:16.169Z,6.20
2023-01-15T07:09:43.337Z,6.20
2023-01-15T07:12:10.687Z,6.20
2023-01-15T07:14:37.843Z,6.20
2023-01-15T07:17:04.852Z,6.20
2023-01-15T07:19:31.998Z,6.20
2023-01-15T07:21:58.977Z,6.20
2023-01-15T07:24:26.127Z,6.30
2023-01-15T07:26:53.088Z,6.20
2023-01-15T07:29:20.216Z,6.20
2023-01-15T07:31:47.477Z,6.30
2023-01-15T07:34:14.844Z,6.20
2023-01-15T07:36:42.325Z,6.10
2023-01-15T07:39:11.054Z,6.10
2023-01-15T07:41:57.083Z,6.10
2023-01-15T07:44:42.564Z,6.10
2023-01-15T07:47:42.895Z,6.20
2023-01-15T07:50:13.822Z,6.20
2023-01-15T07:52:41.028Z,6.20
2023-01-15T07:55:09.404Z,6.20
2023-01-15T07:57:37.734Z,6.20
2023-01-15T08:00:08.096Z,6.20
2023-01-15T08:02:35.192Z,6.20
2023-01-15T08:05:02.208Z,6.10
2023-01-15T08:07:29.316Z,6.10
2023-01-15T08:09:56.281Z,6.20
2023-01-15T08:12:41.655Z,6.20
2023-01-15T08:15:13.144Z,6.30
2023-01-15T08:17:46.001Z,6.30
2023-01-15T08:20:22.214Z,6.30
2023-01-15T08:22:49.434Z,6.30
2023-01-15T08:25:22.363Z,6.40
2023-01-15T08:27:49.890Z,6.40
2023-01-15T08:30:23.856Z,6.50
2023-01-15T08:32:50.809Z,6.50
2023-01-15T08:35:17.880Z,6.50
2023-01-15T08:37:45.013Z,6.50
2023-01-15T08:40:13.133Z,6.60
2023-01-15T08:42:40.936Z,6.60
2023-01-15T08:45:09.018Z,6.70
2023-01-15T08:47:37.357Z,6.70
2023-01-15T08:50:06.751Z,6.80
2023-01-15T08:52:34.044Z,6.80
2023-01-15T08:55:01.145Z,6.80
2023-01-15T08:57:28.091Z,6.80
2023-01-15T08:59:55.059Z,6.90
2023-01-15T09:02:22.157Z,6.90
2023-01-15T09:04:49.246Z,6.90
2023-01-15T09:07:17.063Z,6.90
2023-01-15T09:09:44.214Z,7.00
2023-01-15T09:12:11.161Z,7.00
2023-01-15T09:14:57.976Z,7.10
2023-01-15T09:17:25.238Z,7.10
2023-01-15T09:19:52.283Z,7.10
2023-01-15T09:22:19.371Z,7.10
2023-01-15T09:24:47.374Z,7.20
2023-01-15T09:27:14.602Z,7.20
2023-01-15T09:29:41.642Z,7.20
2023-01-15T09:32:10.503Z,7.20
2023-01-15T09:34:37.528Z,7.20
2023-01-15T09:37:04.775Z,7.20
2023-01-15T09:39:32.243Z,7.20
2023-01-15T09:42:08.748Z,7.20
2023-01-15T09:44:57.323Z,7.20
2023-01-15T09:47:43.447Z,7.30
2023-01-15T09:50:19.730Z,7.30
2023-01-15T09:53:30.529Z,7.40
2023-01-15T09:56:00.239Z,7.40
2023-01-15T09:58:37.267Z,7.50
2023-01-15T10:01:05.260Z,7.60
2023-01-15T10:03:54.527Z,7.60
2023-01-15T10:06:43.417Z,7.70
2023-01-15T10:09:11.767Z,7.70
2023-01-15T10:12:25.403Z,7.80
2023-01-15T10:15:13.726Z,7.80
2023-01-15T10:17:42.330Z,7.80
2023-01-15T10:20:27.809Z,7.90
2023-01-15T10:23:19.763Z,7.90
2023-01-15T10:25:52.201Z,8.00
2023-01-15T10:28:43.280Z,8.10
2023-01-15T10:31:20.946Z,8.00
2023-01-15T10:34:30.688Z,8.10
2023-01-15T10:37:15.255Z,8.00
2023-01-15T10:40:24.132Z,8.10
2023-01-15T10:43:09.167Z,8.20
2023-01-15T10:45:48.972Z,8.20
2023-01-15T10:48:31.085Z,8.30
2023-01-15T10:51:02.522Z,8.40
2023-01-15T10:53:40.685Z,8.50
2023-01-15T10:56:23.657Z,8.60
2023-01-15T10:59:16.846Z,8.60
2023-01-15T11:01:44.006Z,8.50
2023-01-15T11:04:14.063Z,8.50
2023-01-15T11:06:42.091Z,8.50
2023-01-15T11:09:19.002Z,8.50
2023-01-15T11:12:00.667Z,8.50
2023-01-15T11:14:58.033Z,8.50
2023-01-15T11:17:49.065Z,8.50
2023-01-15T11:20:31.655Z,8.50
2023-01-15T11:23:11.296Z,8.50
2023-01-15T11:25:44.734Z,8.40
2023-01-15T11:28:15.513Z,8.40
2023-01-15T11:30:45.103Z,8.50
2023-01-15T11:33:24.254Z,8.50
2023-01-15T11:35:58.417Z,8.50
2023-01-15T11:38:27.846Z,8.60
2023-01-15T11:41:00.317Z,8.60
2023-01-15T11:43:49.358Z,8.60
2023-01-15T11:46:43.669Z,8.60
2023-01-15T11:49:29.969Z,8.60
2023-01-15T11:51:59.539Z,8.50
2023-01-15T11:54:29.918Z,8.60
2023-01-15T11:56:57.707Z,8.60
2023-01-15T11:59:26.045Z,8.60
2023-01-15T12:02:01.375Z,8.60
2023-01-15T12:04:37.949Z,8.60
2023-01-15T12:07:06.964Z,8.50
2023-01-15T12:10:02.010Z,8.50
2023-01-15T12:12:55.544Z,8.50
2023-01-15T12:15:22.548Z,8.40
2023-01-15T12:18:24.614Z,8.30
2023-01-15T12:21:20.972Z,8.30
2023-01-15T12:23:50.732Z,8.20
2023-01-15T12:26:40.764Z,7.90
2023-01-15T12:29:27.453Z,7.60
2023-01-15T12:32:18.562Z,6.80
2023-01-15T12:35:14.724Z,6.20
2023-01-15T12:37:48.563Z,5.80
2023-01-15T12:40:19.205Z,5.60
2023-01-15T12:43:08.049Z,5.50
2023-01-15T12:45:41.372Z,5.50
2023-01-15T12:48:35.679Z,5.50
2023-01-15T12:51:05.491Z,5.40
2023-01-15T12:53:43.781Z,5.20
2023-01-15T12:56:29.216Z,5.20
2023-01-15T12:59:07.414Z,5.10
2023-01-15T13:01:42.216Z,5.10
2023-01-15T13:04:23.710Z,5.10
2023-01-15T13:07:01.358Z,5.10
2023-01-15T13:09:45.824Z,5.10
2023-01-15T13:12:17.326Z,5.00
2023-01-15T13:14:46.607Z,5.10
2023-01-15T13:17:33.745Z,5.00
2023-01-15T13:20:48.853Z,5.10
2023-01-15T13:23:36.968Z,5.00
2023-01-15T13:26:03.933Z,5.00
2023-01-15T13:29:02.562Z,5.00
2023-01-15T13:31:53.619Z,5.00
2023-01-15T13:34:35.444Z,5.00
2023-01-15T13:37:12.285Z,5.10
2023-01-15T13:39:45.485Z,5.10
2023-01-15T13:42:38.191Z,5.10
2023-01-15T13:45:16.855Z,5.10
2023-01-15T13:47:53.217Z,5.10
2023-01-15T13:50:32.109Z,5.00
2023-01-15T13:53:13.817Z,5.00
2023-01-15T13:55:49.084Z,5.00
2023-01-15T13:58:27.871Z,5.00
2023-01-15T14:01:22.468Z,5.10
2023-01-15T14:04:18.227Z,5.10
2023-01-15T14:06:46.348Z,5.10
2023-01-15T14:09:25.207Z,5.10
2023-01-15T14:12:07.637Z,5.10
2023-01-15T14:15:16.333Z,5.10
2023-01-15T14:18:24.737Z,5.10
2023-01-15T14:21:33.762Z,5.00
2023-01-15T14:24:19.168Z,4.90
2023-01-15T14:27:16.724Z,4.90
2023-01-15T14:30:07.576Z,4.80
2023-01-15T14:32:59.810Z,4.80
2023-01-15T14:35:29.082Z,4.80
